Airfield :
LOGIN :

Register | Disclaimer

   EN    FR    IT 

 










Legend :    VFR   Marginal VFR   IFR   Intensive IFR   Very Intensive IFR
Visi :
Ceiling :
>= 8 km
>= 3000ft
5 to 8 km
1000 to 3000 ft
1500m to 5 km
500 to 1000 ft
800 to 1500m
200 to 500 ft
< 800m
< 200 ft
Symbols :   Thunderstorms  Fog  Heavy snow  Heavy precipitations  Wind > 20 kt
SIGMETs :     Misc.  Thunderstorms  Icing  Turbulence  Mountain Waves  Volcanic Ashes






- Airport Elevation : 16 ft
- IATA code : EAS


LESO - San Sebastian Fuenterrabia

CURRENT METAR :
  • 200100Z AUTO 10004KT 350V140 8000 -RA FEW008 16/16 Q1001

EXPIRED METARs :
  • 200030Z AUTO VRB02KT 9000 -RA NSC 16/15 Q1002
  • 200000Z AUTO 25003KT 210V300 9999 -RA NSC 16/15 Q1002
  • 192330Z AUTO 22004KT 190V250 9999 -RA SCT011 16/15 Q1002
  • 192300Z AUTO 22005KT 200V270 9999 -RA SCT011 BKN069 16/15 Q1003
  • 192230Z AUTO 24006KT 200V270 9999 SCT013 16/15 Q1003

TAF TAF LESO
Valid from the 20 at 00:00 until the 21 at 00:00 UTC


192300Z 2000/2024 27009KT 9999 -RA SCT015 BKN030 TX16/2000Z TN11/2024Z
TEMPO 2000/2021 3000 RA SHRA BKN014 SCT025TCU
PROB40
TEMPO 2003/2024 SHRA TS SCT025TCU SCT030CB
TEMPO 2003/2021 27015G25KT



MET'MAP, your aeronautical weather chart ! - Copyright ORBIFLY December 2007 - Disclaimer

ORBIFLY MET'MAP TEAM :

Programming & Development : Alexandra Zaïnal
Concept & Development : Baudouin d'Aumeries
Co-Development & Prog : Marc-Olivier Méhu
Technical & hardware support : Manuel Goepfert

Contact : metmap@orbifly.com




SOURCES & CREDITS :

   NOAA